Time;durP1;ratioP1;P1;durP2;ratioP2;P2;SDS_P1;SDS_P2;PMS_P1;PMS_P2;Temp;Humidity;BMP_temperature;BMP_pressure;BME280_temperature;BME280_humidity;BME280_pressure;Samples;Min_cycle;Max_cycle;Signal;HPM_P1;HPM_P2
2024/01/24 00:01:21;;;;;;;;;;;7.90;99.90;;;;;;5063145;28;20014;-69
2024/01/24 00:03:48;;;;;;;;;;;7.90;99.90;;;;;;5061627;28;19986;-69
2024/01/24 00:06:14;;;;;;;;;;;7.90;99.90;;;;;;5062988;28;20299;-69
2024/01/24 00:08:41;;;;;;;;;;;7.90;99.90;;;;;;5060807;28;19946;-69
2024/01/24 00:11:07;;;;;;;;;;;7.90;99.90;;;;;;5063293;28;19936;-68
2024/01/24 00:13:34;;;;;;;;;;;8.00;99.90;;;;;;5062203;28;19929;-68
2024/01/24 00:16:00;;;;;;;;;;;8.00;99.90;;;;;;5060281;28;20001;-68
2024/01/24 00:18:28;;;;;;;;;;;8.00;99.90;;;;;;5061471;28;19962;-70
2024/01/24 00:20:54;;;;;;;;;;;8.00;99.90;;;;;;5060793;28;19928;-69
2024/01/24 00:23:23;;;;;;;;;;;8.00;99.90;;;;;;5063435;28;19987;-70
2024/01/24 00:25:49;;;;;;;;;;;8.00;99.90;;;;;;5061478;28;19950;-69
2024/01/24 00:28:16;;;;;;;;;;;8.00;99.90;;;;;;5062073;28;19978;-69
2024/01/24 00:30:42;;;;;;;;;;;8.00;99.90;;;;;;5063456;28;19929;-68
2024/01/24 00:33:09;;;;;;;;;;;8.10;99.90;;;;;;5066394;28;19985;-69
2024/01/24 00:35:37;;;;;;;;;;;8.10;99.90;;;;;;5063214;28;19933;-68
2024/01/24 00:38:04;;;;;;;;;;;8.10;99.90;;;;;;5062155;28;19933;-68
2024/01/24 00:40:30;;;;;;;;;;;8.10;99.90;;;;;;5063264;28;19986;-68
2024/01/24 00:42:57;;;;;;;;;;;8.10;99.90;;;;;;5061274;28;19941;-70
2024/01/24 00:45:23;;;;;;;;;;;8.10;99.90;;;;;;5062096;28;19936;-69
2024/01/24 00:47:50;;;;;;;;;;;8.20;99.90;;;;;;5060449;28;19928;-68
2024/01/24 00:50:16;;;;;;;;;;;8.10;99.90;;;;;;5062509;28;20348;-70
2024/01/24 00:52:44;;;;;;;;;;;8.10;99.90;;;;;;5062623;28;19928;-69
2024/01/24 00:55:11;;;;;;;;;;;8.20;99.90;;;;;;5063728;28;19978;-70
2024/01/24 00:57:37;;;;;;;;;;;8.20;99.90;;;;;;5061954;28;19943;-69
2024/01/24 01:00:06;;;;;;;;;;;8.20;99.90;;;;;;5062592;28;19928;-69
2024/01/24 01:02:33;;;;;;;;;;;8.20;99.90;;;;;;5044702;28;19933;-70
2024/01/24 01:05:00;;;;;;;;;;;8.20;99.90;;;;;;5045170;28;20023;-69
2024/01/24 01:07:26;;;;;;;;;;;8.20;99.90;;;;;;5042255;28;19929;-69
2024/01/24 01:09:54;;;;;;;;;;;8.20;99.90;;;;;;5038315;28;20341;-69
2024/01/24 01:12:21;;;;;;;;;;;8.20;99.90;;;;;;5043342;28;19940;-69
2024/01/24 01:14:47;;;;;;;;;;;8.20;99.90;;;;;;5040364;28;20462;-70
2024/01/24 01:17:14;;;;;;;;;;;8.20;99.90;;;;;;5037510;28;19933;-69
2024/01/24 01:19:41;;;;;;;;;;;8.20;99.90;;;;;;5040764;28;19948;-70
2024/01/24 01:22:07;;;;;;;;;;;8.30;99.90;;;;;;5039809;28;19929;-69
2024/01/24 01:24:34;;;;;;;;;;;8.30;99.90;;;;;;5035764;28;19947;-69
2024/01/24 01:27:02;;;;;;;;;;;8.30;99.90;;;;;;5040351;28;20476;-71
2024/01/24 01:29:28;;;;;;;;;;;8.30;99.90;;;;;;5041233;28;19935;-69
2024/01/24 01:31:55;;;;;;;;;;;8.30;99.90;;;;;;5035945;28;19936;-68
2024/01/24 01:34:21;;;;;;;;;;;8.30;99.90;;;;;;5041343;28;20460;-69
2024/01/24 01:36:48;;;;;;;;;;;8.30;99.90;;;;;;5042422;28;19940;-69
2024/01/24 01:39:14;;;;;;;;;;;8.30;99.90;;;;;;5042531;28;19928;-70
2024/01/24 01:41:41;;;;;;;;;;;8.40;99.90;;;;;;5047069;28;19974;-69
2024/01/24 01:44:09;;;;;;;;;;;8.40;99.90;;;;;;5041973;28;19932;-68
2024/01/24 01:46:37;;;;;;;;;;;8.40;99.90;;;;;;5054812;28;19929;-68
2024/01/24 01:49:04;;;;;;;;;;;8.40;99.90;;;;;;5064965;28;19928;-70
2024/01/24 01:51:31;;;;;;;;;;;8.40;99.90;;;;;;5066023;28;19929;-69
2024/01/24 01:53:58;;;;;;;;;;;8.40;99.90;;;;;;5063621;28;20413;-69
2024/01/24 01:56:25;;;;;;;;;;;8.40;99.90;;;;;;5064652;28;19929;-69
2024/01/24 01:58:52;;;;;;;;;;;8.40;99.90;;;;;;5063791;28;20379;-71
2024/01/24 02:01:20;;;;;;;;;;;8.50;99.90;;;;;;5062432;28;20435;-68
2024/01/24 02:03:46;;;;;;;;;;;8.50;99.90;;;;;;5063566;28;19962;-68
2024/01/24 02:06:13;;;;;;;;;;;8.50;99.90;;;;;;5064413;28;19929;-69
2024/01/24 02:08:40;;;;;;;;;;;8.50;99.90;;;;;;5066188;28;19928;-70
2024/01/24 02:11:07;;;;;;;;;;;8.50;99.90;;;;;;5063658;28;20039;-70
2024/01/24 02:13:33;;;;;;;;;;;8.50;99.90;;;;;;5064048;28;19932;-69
2024/01/24 02:16:00;;;;;;;;;;;8.50;99.90;;;;;;5064924;28;19935;-69
2024/01/24 02:18:28;;;;;;;;;;;8.50;99.90;;;;;;5062484;28;20698;-70
2024/01/24 02:20:55;;;;;;;;;;;8.50;99.90;;;;;;5064136;28;20018;-71
2024/01/24 02:23:23;;;;;;;;;;;8.50;99.90;;;;;;5060497;28;19932;-70
2024/01/24 02:25:51;;;;;;;;;;;8.50;99.90;;;;;;5066711;28;20518;-69
2024/01/24 02:28:18;;;;;;;;;;;8.50;99.90;;;;;;5061826;28;20018;-69
2024/01/24 02:30:45;;;;;;;;;;;8.50;99.90;;;;;;5062862;28;19982;-69
2024/01/24 02:33:12;;;;;;;;;;;8.60;99.90;;;;;;5064886;28;19929;-69
2024/01/24 02:35:38;;;;;;;;;;;8.50;99.90;;;;;;5063542;28;19929;-69
2024/01/24 02:38:05;;;;;;;;;;;8.60;99.90;;;;;;5062475;28;20394;-68
2024/01/24 02:40:31;;;;;;;;;;;8.60;99.90;;;;;;5062310;28;19933;-69
2024/01/24 02:42:59;;;;;;;;;;;8.60;99.90;;;;;;5059840;28;19929;-69
2024/01/24 02:45:26;;;;;;;;;;;8.60;99.90;;;;;;5062598;28;19978;-70
2024/01/24 02:47:52;;;;;;;;;;;8.60;99.90;;;;;;5059405;28;20301;-69
2024/01/24 02:50:19;;;;;;;;;;;8.60;99.90;;;;;;5062744;28;19932;-68
2024/01/24 02:52:45;;;;;;;;;;;8.60;99.90;;;;;;5061750;28;19997;-68
2024/01/24 02:55:14;;;;;;;;;;;8.70;99.90;;;;;;5061801;28;19982;-69
2024/01/24 02:57:40;;;;;;;;;;;8.70;99.90;;;;;;5061764;28;20712;-70
2024/01/24 03:00:09;;;;;;;;;;;8.70;99.90;;;;;;5062427;28;19933;-69
2024/01/24 03:02:36;;;;;;;;;;;8.70;99.90;;;;;;5059156;28;19928;-68
2024/01/24 03:05:03;;;;;;;;;;;8.70;99.90;;;;;;5059881;28;19990;-70
2024/01/24 03:07:30;;;;;;;;;;;8.70;99.90;;;;;;5063684;28;19952;-69
2024/01/24 03:09:56;;;;;;;;;;;8.70;99.90;;;;;;5063762;28;20356;-69
2024/01/24 03:12:23;;;;;;;;;;;8.80;99.90;;;;;;5062852;28;19932;-69
2024/01/24 03:14:49;;;;;;;;;;;8.70;99.90;;;;;;5061548;28;19928;-70
2024/01/24 03:17:17;;;;;;;;;;;8.70;99.90;;;;;;5062112;28;20491;-69
2024/01/24 03:19:44;;;;;;;;;;;8.80;99.90;;;;;;5064024;28;19928;-70
2024/01/24 03:22:10;;;;;;;;;;;8.80;99.90;;;;;;5061049;28;19929;-69
2024/01/24 03:24:37;;;;;;;;;;;8.80;99.90;;;;;;5061763;28;20415;-69
2024/01/24 03:27:03;;;;;;;;;;;8.90;99.90;;;;;;5060051;28;19935;-69
2024/01/24 03:29:30;;;;;;;;;;;8.80;99.90;;;;;;5060164;28;19936;-71
2024/01/24 03:31:56;;;;;;;;;;;8.80;99.90;;;;;;5062058;28;19989;-69
2024/01/24 03:34:27;;;;;;;;;;;8.90;99.90;;;;;;5061296;28;19987;-69
2024/01/24 03:36:53;;;;;;;;;;;8.90;99.90;;;;;;5062661;28;19936;-69
2024/01/24 03:39:20;;;;;;;;;;;8.90;99.90;;;;;;5059433;28;19958;-69
2024/01/24 03:41:46;;;;;;;;;;;8.90;99.90;;;;;;5068300;28;19936;-69
2024/01/24 03:44:13;;;;;;;;;;;8.90;99.90;;;;;;5059445;28;19928;-68
2024/01/24 03:46:40;;;;;;;;;;;9.00;99.90;;;;;;5058430;28;19935;-68
2024/01/24 03:49:06;;;;;;;;;;;8.90;99.90;;;;;;5063678;28;20709;-67
2024/01/24 03:51:34;;;;;;;;;;;9.00;99.90;;;;;;5060588;28;19928;-70
2024/01/24 03:54:01;;;;;;;;;;;9.00;99.90;;;;;;5062140;28;19928;-69
2024/01/24 03:56:27;;;;;;;;;;;9.00;99.90;;;;;;5060068;28;19936;-70
2024/01/24 03:58:54;;;;;;;;;;;9.00;99.90;;;;;;5058298;28;20398;-71
2024/01/24 04:01:20;;;;;;;;;;;9.00;99.90;;;;;;5059530;28;19940;-69
2024/01/24 04:03:47;;;;;;;;;;;9.00;99.90;;;;;;5065039;28;19928;-69
2024/01/24 04:06:14;;;;;;;;;;;9.10;99.90;;;;;;5059707;28;19939;-69
2024/01/24 04:08:43;;;;;;;;;;;9.00;99.90;;;;;;5063800;28;19925;-69
2024/01/24 04:11:10;;;;;;;;;;;9.10;99.90;;;;;;5061758;28;19982;-68
2024/01/24 04:13:36;;;;;;;;;;;9.00;99.90;;;;;;5062058;28;20284;-70
2024/01/24 04:16:03;;;;;;;;;;;9.10;99.90;;;;;;5065000;28;19928;-70
2024/01/24 04:18:29;;;;;;;;;;;9.10;99.90;;;;;;5063190;28;19928;-70
2024/01/24 04:20:56;;;;;;;;;;;9.10;99.90;;;;;;5060657;28;19936;-69
2024/01/24 04:23:22;;;;;;;;;;;9.10;99.90;;;;;;5067427;28;20297;-70
2024/01/24 04:25:50;;;;;;;;;;;9.10;99.90;;;;;;5059939;28;19933;-69
2024/01/24 04:28:17;;;;;;;;;;;9.10;99.90;;;;;;5060932;28;19936;-69
2024/01/24 04:30:43;;;;;;;;;;;9.20;99.90;;;;;;5060851;28;20613;-68
2024/01/24 04:33:10;;;;;;;;;;;9.20;99.90;;;;;;5063339;28;20444;-69
2024/01/24 04:35:37;;;;;;;;;;;9.20;99.90;;;;;;5061145;28;19928;-69
2024/01/24 04:38:03;;;;;;;;;;;9.20;99.90;;;;;;5062061;28;19936;-69
2024/01/24 04:40:30;;;;;;;;;;;9.20;99.90;;;;;;5057642;28;19991;-68
2024/01/24 04:42:58;;;;;;;;;;;9.20;99.90;;;;;;5060888;28;19928;-68
2024/01/24 04:45:24;;;;;;;;;;;9.20;99.90;;;;;;5061252;28;20344;-67
2024/01/24 04:47:51;;;;;;;;;;;9.20;99.90;;;;;;5063022;28;19929;-69
2024/01/24 04:50:17;;;;;;;;;;;9.20;99.90;;;;;;5059856;28;19936;-69
2024/01/24 04:52:44;;;;;;;;;;;9.30;99.90;;;;;;5060605;28;19928;-71
2024/01/24 04:55:11;;;;;;;;;;;9.30;99.90;;;;;;5057596;28;19929;-69
2024/01/24 04:57:38;;;;;;;;;;;9.30;99.90;;;;;;5060510;28;20083;-70
2024/01/24 05:00:08;;;;;;;;;;;9.30;99.90;;;;;;5062253;28;20572;-69
2024/01/24 05:02:34;;;;;;;;;;;9.30;99.90;;;;;;5060596;28;20358;-69
2024/01/24 05:05:01;;;;;;;;;;;9.30;99.90;;;;;;5065438;28;19932;-69
2024/01/24 05:07:28;;;;;;;;;;;9.30;99.90;;;;;;5063004;28;20098;-69
2024/01/24 05:09:54;;;;;;;;;;;9.40;99.90;;;;;;5060216;28;20291;-71
2024/01/24 05:12:21;;;;;;;;;;;9.40;99.90;;;;;;5060016;28;19928;-70
2024/01/24 05:14:47;;;;;;;;;;;9.40;99.90;;;;;;5065636;28;19959;-70
2024/01/24 05:17:15;;;;;;;;;;;9.40;99.90;;;;;;5064860;28;19940;-70
2024/01/24 05:19:42;;;;;;;;;;;9.40;99.90;;;;;;5066025;28;19928;-70
2024/01/24 05:22:09;;;;;;;;;;;9.40;99.90;;;;;;5065606;28;19933;-68
2024/01/24 05:24:35;;;;;;;;;;;9.40;99.90;;;;;;5067848;28;19928;-71
2024/01/24 05:27:02;;;;;;;;;;;9.40;99.90;;;;;;5060490;28;19944;-70
2024/01/24 05:29:29;;;;;;;;;;;9.50;99.90;;;;;;5062133;28;19932;-68
2024/01/24 05:31:55;;;;;;;;;;;9.40;99.90;;;;;;5064364;28;20497;-69
2024/01/24 05:34:23;;;;;;;;;;;9.50;99.90;;;;;;5065361;28;19936;-70
2024/01/24 05:36:50;;;;;;;;;;;9.50;99.90;;;;;;5061324;28;19993;-70
2024/01/24 05:39:16;;;;;;;;;;;9.50;99.90;;;;;;5064828;28;20348;-70
2024/01/24 05:41:43;;;;;;;;;;;9.50;99.90;;;;;;5062819;28;20386;-69
2024/01/24 05:44:10;;;;;;;;;;;9.50;99.90;;;;;;5064669;28;20410;-69
2024/01/24 05:46:36;;;;;;;;;;;9.50;99.90;;;;;;5063149;28;19989;-68
2024/01/24 05:49:03;;;;;;;;;;;9.50;99.90;;;;;;5065621;28;20006;-69
2024/01/24 05:51:31;;;;;;;;;;;9.50;99.90;;;;;;5063028;28;19929;-69
2024/01/24 05:53:57;;;;;;;;;;;9.60;99.90;;;;;;5064516;28;21378;-70
2024/01/24 05:56:24;;;;;;;;;;;9.50;99.90;;;;;;5061800;28;19936;-70
2024/01/24 05:58:50;;;;;;;;;;;9.60;99.90;;;;;;5062939;28;19939;-69
2024/01/24 06:01:17;;;;;;;;;;;9.60;99.90;;;;;;5059444;28;19936;-70
2024/01/24 06:03:43;;;;;;;;;;;9.60;99.90;;;;;;5059671;28;20459;-69
2024/01/24 06:06:10;;;;;;;;;;;9.60;99.90;;;;;;5064695;28;20600;-71
2024/01/24 06:08:38;;;;;;;;;;;9.70;99.90;;;;;;5064634;28;19940;-68
2024/01/24 06:11:05;;;;;;;;;;;9.70;99.90;;;;;;5064995;28;19928;-70
2024/01/24 06:13:31;;;;;;;;;;;9.70;99.90;;;;;;5061292;28;19939;-71
2024/01/24 06:15:58;;;;;;;;;;;9.60;99.90;;;;;;5063720;28;19939;-70
2024/01/24 06:18:24;;;;;;;;;;;9.70;99.90;;;;;;5059601;28;19936;-69
2024/01/24 06:20:51;;;;;;;;;;;9.70;99.90;;;;;;5064902;28;19932;-69
2024/01/24 06:23:17;;;;;;;;;;;9.70;99.90;;;;;;5066401;28;19929;-69
2024/01/24 06:25:45;;;;;;;;;;;9.70;99.90;;;;;;5065501;28;19935;-68
2024/01/24 06:28:12;;;;;;;;;;;9.70;99.90;;;;;;5064590;28;20398;-68
2024/01/24 06:30:39;;;;;;;;;;;9.80;99.90;;;;;;5063902;28;19928;-70
2024/01/24 06:33:06;;;;;;;;;;;9.80;99.90;;;;;;5064018;28;19985;-69
2024/01/24 06:35:32;;;;;;;;;;;9.80;99.90;;;;;;5060694;28;20301;-70
2024/01/24 06:37:59;;;;;;;;;;;9.90;99.90;;;;;;5064159;28;19932;-72
2024/01/24 06:40:25;;;;;;;;;;;10.10;99.90;;;;;;5062242;28;19932;-71
2024/01/24 06:42:53;;;;;;;;;;;10.10;99.90;;;;;;5068619;28;19935;-69
2024/01/24 06:45:20;;;;;;;;;;;10.10;99.90;;;;;;5068205;28;19982;-71
2024/01/24 06:47:47;;;;;;;;;;;10.00;99.90;;;;;;5063733;28;19974;-72
2024/01/24 06:50:14;;;;;;;;;;;10.00;99.90;;;;;;5064866;28;20047;-73
2024/01/24 06:52:40;;;;;;;;;;;10.00;99.90;;;;;;5065581;28;20024;-71
2024/01/24 06:55:08;;;;;;;;;;;9.90;99.90;;;;;;5063472;28;19928;-71
2024/01/24 06:57:34;;;;;;;;;;;9.90;99.90;;;;;;5065701;28;19929;-71
2024/01/24 07:00:04;;;;;;;;;;;9.90;99.90;;;;;;5064754;28;19928;-69
2024/01/24 07:02:31;;;;;;;;;;;9.90;99.90;;;;;;5061588;28;19936;-70
2024/01/24 07:04:57;;;;;;;;;;;9.90;99.90;;;;;;5066416;28;19928;-70
2024/01/24 07:07:25;;;;;;;;;;;9.80;99.90;;;;;;5064205;28;20428;-70
2024/01/24 07:09:51;;;;;;;;;;;9.80;99.90;;;;;;5063807;28;19935;-69
2024/01/24 07:12:20;;;;;;;;;;;10.00;99.90;;;;;;5064246;28;19974;-70
2024/01/24 07:14:48;;;;;;;;;;;10.10;99.90;;;;;;5062864;28;19928;-70
2024/01/24 07:17:15;;;;;;;;;;;10.10;99.90;;;;;;5061947;28;20051;-71
2024/01/24 07:19:42;;;;;;;;;;;10.20;99.90;;;;;;5062364;28;20360;-69
2024/01/24 07:22:09;;;;;;;;;;;10.20;99.90;;;;;;5061110;28;20027;-69
2024/01/24 07:24:35;;;;;;;;;;;10.30;99.90;;;;;;5064043;28;19936;-73
2024/01/24 07:27:02;;;;;;;;;;;10.30;99.90;;;;;;5059840;28;20013;-73
2024/01/24 07:29:28;;;;;;;;;;;10.40;99.90;;;;;;5063002;28;19931;-71
2024/01/24 07:31:55;;;;;;;;;;;10.40;99.90;;;;;;5059690;28;19940;-73
2024/01/24 07:34:24;;;;;;;;;;;10.40;99.90;;;;;;5061918;28;19974;-71
2024/01/24 07:36:50;;;;;;;;;;;10.40;99.90;;;;;;5061749;28;19998;-72
2024/01/24 07:39:17;;;;;;;;;;;10.40;99.90;;;;;;5061543;28;19928;-70
2024/01/24 07:41:44;;;;;;;;;;;10.40;99.90;;;;;;5063874;28;19974;-73
2024/01/24 07:44:10;;;;;;;;;;;10.50;99.90;;;;;;5063746;28;20024;-72
2024/01/24 07:46:41;;;;;;;;;;;10.50;99.90;;;;;;5068271;28;19928;-70
2024/01/24 07:49:08;;;;;;;;;;;10.50;99.90;;;;;;5062758;28;19982;-75
2024/01/24 07:51:36;;;;;;;;;;;10.50;99.90;;;;;;5057936;28;19928;-71
2024/01/24 07:54:04;;;;;;;;;;;10.50;99.90;;;;;;5063275;28;20010;-70
2024/01/24 07:56:31;;;;;;;;;;;10.50;99.90;;;;;;5063494;28;19932;-70
2024/01/24 07:58:57;;;;;;;;;;;10.50;99.90;;;;;;5063133;28;19993;-71
2024/01/24 08:01:24;;;;;;;;;;;10.60;99.90;;;;;;5057817;28;20355;-72
2024/01/24 08:03:51;;;;;;;;;;;10.60;99.90;;;;;;5060882;28;20428;-70
2024/01/24 08:06:18;;;;;;;;;;;10.60;99.90;;;;;;5061294;28;19932;-71
2024/01/24 08:08:46;;;;;;;;;;;10.60;99.90;;;;;;5058580;28;19932;-73
2024/01/24 08:11:12;;;;;;;;;;;10.60;99.90;;;;;;5064576;28;19933;-70
2024/01/24 08:13:39;;;;;;;;;;;10.60;99.90;;;;;;5061766;28;20423;-75
2024/01/24 08:16:07;;;;;;;;;;;10.60;99.90;;;;;;5061366;28;19936;-70
2024/01/24 08:18:34;;;;;;;;;;;10.60;99.90;;;;;;5063103;28;19927;-71
2024/01/24 08:21:00;;;;;;;;;;;10.70;99.90;;;;;;5062425;28;19932;-73
2024/01/24 08:23:27;;;;;;;;;;;10.70;99.90;;;;;;5060284;28;19928;-70
2024/01/24 08:25:55;;;;;;;;;;;10.70;99.90;;;;;;5058835;28;19936;-71
2024/01/24 08:28:21;;;;;;;;;;;10.70;99.90;;;;;;5060007;28;19936;-70
2024/01/24 08:30:48;;;;;;;;;;;10.70;99.90;;;;;;5063786;28;19935;-70
2024/01/24 08:33:15;;;;;;;;;;;10.70;99.90;;;;;;5062977;28;19982;-71
2024/01/24 08:35:42;;;;;;;;;;;10.70;99.90;;;;;;5062617;28;19928;-70
2024/01/24 08:38:09;;;;;;;;;;;10.70;99.90;;;;;;5061374;28;19920;-70
2024/01/24 08:40:38;;;;;;;;;;;10.70;99.90;;;;;;5065364;28;19924;-70
2024/01/24 08:43:06;;;;;;;;;;;10.70;99.90;;;;;;5061538;28;20670;-73
2024/01/24 08:45:33;;;;;;;;;;;10.70;99.90;;;;;;5058324;28;19929;-69
2024/01/24 08:47:59;;;;;;;;;;;10.70;99.90;;;;;;5062412;28;19971;-72
2024/01/24 08:50:26;;;;;;;;;;;10.70;99.90;;;;;;5058854;28;19928;-71
2024/01/24 08:52:52;;;;;;;;;;;10.70;99.90;;;;;;5066540;28;20382;-71
2024/01/24 08:55:19;;;;;;;;;;;10.70;99.90;;;;;;5066384;28;19936;-70
2024/01/24 08:57:45;;;;;;;;;;;10.70;99.90;;;;;;5066113;28;19974;-70
2024/01/24 09:00:14;;;;;;;;;;;10.70;99.90;;;;;;5066897;28;19928;-72
2024/01/24 09:02:40;;;;;;;;;;;10.70;99.90;;;;;;5062900;28;19928;-71
2024/01/24 09:05:08;;;;;;;;;;;10.70;99.90;;;;;;5064213;28;19935;-72
2024/01/24 09:07:35;;;;;;;;;;;10.70;99.90;;;;;;5067426;28;19928;-71
2024/01/24 09:10:02;;;;;;;;;;;10.70;99.90;;;;;;5066627;28;19932;-71
2024/01/24 09:12:28;;;;;;;;;;;10.70;99.90;;;;;;5063784;28;20058;-73
2024/01/24 09:14:55;;;;;;;;;;;10.70;99.90;;;;;;5065742;28;19940;-72
2024/01/24 09:17:23;;;;;;;;;;;10.70;99.90;;;;;;5063847;28;19936;-71
2024/01/24 09:19:49;;;;;;;;;;;10.70;99.90;;;;;;5064140;28;19970;-72
2024/01/24 09:22:16;;;;;;;;;;;10.70;99.90;;;;;;5062944;28;20382;-69
2024/01/24 09:24:42;;;;;;;;;;;10.70;99.90;;;;;;5066965;28;20001;-71
2024/01/24 09:27:09;;;;;;;;;;;10.70;99.90;;;;;;5066813;28;20393;-70
2024/01/24 09:29:36;;;;;;;;;;;10.70;99.90;;;;;;5063708;28;19929;-71
2024/01/24 09:32:03;;;;;;;;;;;10.70;99.90;;;;;;5064420;28;20011;-71
2024/01/24 09:34:30;;;;;;;;;;;10.80;99.90;;;;;;5067199;28;19928;-72
2024/01/24 09:36:57;;;;;;;;;;;10.70;99.90;;;;;;5064882;28;20041;-70
2024/01/24 09:39:25;;;;;;;;;;;10.70;99.90;;;;;;5066423;28;19932;-71
2024/01/24 09:41:52;;;;;;;;;;;10.80;99.90;;;;;;5065315;28;20333;-72
2024/01/24 09:44:19;;;;;;;;;;;10.80;99.90;;;;;;5065567;28;20441;-72
2024/01/24 09:46:48;;;;;;;;;;;10.80;99.90;;;;;;5060939;28;19929;-70
2024/01/24 09:49:15;;;;;;;;;;;10.70;99.90;;;;;;5065357;28;19940;-73
2024/01/24 09:51:43;;;;;;;;;;;10.80;99.90;;;;;;5061390;28;19932;-70
2024/01/24 09:54:10;;;;;;;;;;;10.80;99.90;;;;;;5066116;28;19932;-70
2024/01/24 09:56:37;;;;;;;;;;;10.80;99.90;;;;;;5063313;28;19948;-71
2024/01/24 09:59:04;;;;;;;;;;;10.80;99.90;;;;;;5062933;28;19946;-71
2024/01/24 10:01:31;;;;;;;;;;;10.80;99.90;;;;;;5060130;28;19939;-71
2024/01/24 10:03:58;;;;;;;;;;;10.80;99.90;;;;;;5064004;28;19962;-72
2024/01/24 10:06:25;;;;;;;;;;;10.80;99.90;;;;;;5061365;28;20010;-70
2024/01/24 10:08:52;;;;;;;;;;;10.80;99.90;;;;;;5062657;28;19935;-71
2024/01/24 10:11:19;;;;;;;;;;;10.80;99.90;;;;;;5065841;28;20632;-69
2024/01/24 10:13:45;;;;;;;;;;;10.80;99.90;;;;;;5063096;28;19924;-72
2024/01/24 10:16:12;;;;;;;;;;;10.80;99.90;;;;;;5066323;28;19929;-70
2024/01/24 10:18:39;;;;;;;;;;;10.80;99.90;;;;;;5063435;28;19936;-71
2024/01/24 10:21:05;;;;;;;;;;;10.80;99.90;;;;;;5062994;28;20035;-70
2024/01/24 10:23:33;;;;;;;;;;;10.80;99.90;;;;;;5063251;28;19990;-71
2024/01/24 10:26:01;;;;;;;;;;;10.80;99.90;;;;;;5066951;28;20286;-73
2024/01/24 10:28:28;;;;;;;;;;;10.90;99.90;;;;;;5063798;28;20011;-70
2024/01/24 10:30:54;;;;;;;;;;;10.80;99.90;;;;;;5060661;28;19929;-71
2024/01/24 10:33:22;;;;;;;;;;;10.80;99.90;;;;;;5064393;28;20539;-71
2024/01/24 10:35:49;;;;;;;;;;;10.80;99.90;;;;;;5062605;28;20362;-73
2024/01/24 10:38:18;;;;;;;;;;;10.80;99.90;;;;;;5066800;28;19932;-71
2024/01/24 10:40:44;;;;;;;;;;;10.80;99.90;;;;;;5063645;28;19936;-72
2024/01/24 10:43:13;;;;;;;;;;;10.90;99.90;;;;;;5062879;28;19935;-73
2024/01/24 10:45:42;;;;;;;;;;;10.80;99.90;;;;;;5063277;28;19928;-72
2024/01/24 10:48:09;;;;;;;;;;;10.90;99.90;;;;;;5064070;28;19935;-73
2024/01/24 10:50:37;;;;;;;;;;;10.90;99.90;;;;;;5064824;28;19929;-70
2024/01/24 10:53:04;;;;;;;;;;;10.90;99.90;;;;;;5062826;28;19932;-74
2024/01/24 10:55:32;;;;;;;;;;;10.90;99.90;;;;;;5064694;28;19978;-69
2024/01/24 10:57:58;;;;;;;;;;;10.90;99.90;;;;;;5064153;28;19932;-69
2024/01/24 11:00:28;;;;;;;;;;;10.90;99.90;;;;;;5061265;28;19943;-76
2024/01/24 11:02:54;;;;;;;;;;;11.00;99.90;;;;;;5062570;28;20305;-74
2024/01/24 11:05:25;;;;;;;;;;;11.00;99.90;;;;;;5059081;28;19938;-72
2024/01/24 11:07:55;;;;;;;;;;;11.10;99.90;;;;;;5059125;28;19936;-71
2024/01/24 11:10:23;;;;;;;;;;;11.20;99.90;;;;;;5064036;28;19940;-71
2024/01/24 11:12:49;;;;;;;;;;;11.20;99.90;;;;;;5060907;28;19974;-70
2024/01/24 11:15:16;;;;;;;;;;;11.30;99.90;;;;;;5062594;28;19986;-70
2024/01/24 11:17:46;;;;;;;;;;;11.40;99.90;;;;;;5064420;28;20461;-69
2024/01/24 11:20:14;;;;;;;;;;;11.40;99.90;;;;;;5061752;28;21626;-73
2024/01/24 11:22:41;;;;;;;;;;;11.40;99.90;;;;;;5059454;28;19932;-73
2024/01/24 11:25:11;;;;;;;;;;;11.50;99.90;;;;;;5060522;28;19928;-71
2024/01/24 11:27:38;;;;;;;;;;;11.50;99.90;;;;;;5063492;28;19932;-72
2024/01/24 11:30:15;;;;;;;;;;;11.50;99.90;;;;;;5060880;28;19954;-69
2024/01/24 11:33:01;;;;;;;;;;;11.50;99.90;;;;;;5064454;28;20511;-71
2024/01/24 11:35:29;;;;;;;;;;;11.50;99.90;;;;;;5061339;28;20314;-72
2024/01/24 11:37:55;;;;;;;;;;;11.50;99.90;;;;;;5063748;28;19940;-72
2024/01/24 11:40:22;;;;;;;;;;;11.50;99.90;;;;;;5065969;28;19934;-70
2024/01/24 11:42:53;;;;;;;;;;;11.50;99.90;;;;;;5056937;28;19924;-71
2024/01/24 11:45:22;;;;;;;;;;;11.60;99.90;;;;;;5063197;28;20227;-70
2024/01/24 11:47:49;;;;;;;;;;;11.60;99.90;;;;;;5063471;28;19964;-70
2024/01/24 11:50:17;;;;;;;;;;;11.60;99.90;;;;;;5062336;28;20453;-71
2024/01/24 11:52:44;;;;;;;;;;;11.50;99.90;;;;;;5062981;28;19932;-71
2024/01/24 11:55:11;;;;;;;;;;;11.60;99.90;;;;;;5061882;28;19932;-73
2024/01/24 11:57:37;;;;;;;;;;;11.50;99.90;;;;;;5062805;28;19940;-72
2024/01/24 12:00:07;;;;;;;;;;;11.50;99.90;;;;;;5059890;28;22396;-70
2024/01/24 12:02:33;;;;;;;;;;;11.60;99.90;;;;;;5042771;28;20015;-70
2024/01/24 12:05:00;;;;;;;;;;;11.50;99.90;;;;;;5041297;28;20585;-69
2024/01/24 12:07:28;;;;;;;;;;;11.50;99.90;;;;;;5038920;28;19951;-70
2024/01/24 12:09:54;;;;;;;;;;;11.50;99.90;;;;;;5041092;28;19954;-70
2024/01/24 12:12:21;;;;;;;;;;;11.50;99.90;;;;;;5040661;28;20773;-72
2024/01/24 12:14:47;;;;;;;;;;;11.50;99.90;;;;;;5038446;28;19979;-71
2024/01/24 12:17:15;;;;;;;;;;;11.50;99.90;;;;;;5058562;28;19928;-70
2024/01/24 12:19:42;;;;;;;;;;;11.50;99.90;;;;;;5061270;28;20005;-71
2024/01/24 12:22:10;;;;;;;;;;;11.60;99.90;;;;;;5055661;28;19940;-71
2024/01/24 12:24:39;;;;;;;;;;;11.50;99.90;;;;;;5064275;28;20594;-73
2024/01/24 12:27:06;;;;;;;;;;;11.60;99.90;;;;;;5059479;28;19928;-69
2024/01/24 12:29:33;;;;;;;;;;;11.50;99.90;;;;;;5062175;28;20546;-72
2024/01/24 12:32:00;;;;;;;;;;;11.60;99.90;;;;;;5061525;28;20486;-70
2024/01/24 12:34:28;;;;;;;;;;;11.60;99.90;;;;;;5062079;28;19928;-73
2024/01/24 12:36:55;;;;;;;;;;;11.60;99.90;;;;;;5060882;28;19982;-71
2024/01/24 12:39:25;;;;;;;;;;;11.60;99.90;;;;;;5060312;28;19951;-69
2024/01/24 12:41:53;;;;;;;;;;;11.60;99.90;;;;;;5063810;28;19929;-70
2024/01/24 12:44:20;;;;;;;;;;;11.60;99.90;;;;;;5057734;28;19935;-69
2024/01/24 12:46:46;;;;;;;;;;;11.60;99.90;;;;;;5065438;28;20002;-68
2024/01/24 12:49:13;;;;;;;;;;;11.60;99.90;;;;;;5065987;28;19928;-71
2024/01/24 12:51:41;;;;;;;;;;;11.60;99.90;;;;;;5062586;28;19929;-71
2024/01/24 12:54:08;;;;;;;;;;;11.60;99.90;;;;;;5063096;28;20405;-71
2024/01/24 12:56:34;;;;;;;;;;;11.60;99.90;;;;;;5062541;28;19970;-69
2024/01/24 12:59:02;;;;;;;;;;;11.60;99.90;;;;;;5063627;28;19956;-71
2024/01/24 13:01:28;;;;;;;;;;;11.60;99.90;;;;;;5057785;28;20482;-69
2024/01/24 13:03:55;;;;;;;;;;;11.70;99.90;;;;;;5063072;28;19937;-72
2024/01/24 13:06:22;;;;;;;;;;;11.70;99.90;;;;;;5058698;28;19947;-71
2024/01/24 13:08:48;;;;;;;;;;;11.70;99.90;;;;;;5064190;28;19935;-72
2024/01/24 13:11:15;;;;;;;;;;;11.70;99.90;;;;;;5062190;28;19936;-71
2024/01/24 13:13:41;;;;;;;;;;;11.70;99.90;;;;;;5063070;28;19936;-69
2024/01/24 13:16:09;;;;;;;;;;;11.70;99.90;;;;;;5062767;28;19990;-69
2024/01/24 13:18:36;;;;;;;;;;;11.70;99.90;;;;;;5059524;28;19928;-70
2024/01/24 13:21:02;;;;;;;;;;;11.70;99.90;;;;;;5059285;28;19979;-71
2024/01/24 13:23:29;;;;;;;;;;;11.70;99.90;;;;;;5066321;28;19997;-72
2024/01/24 13:25:56;;;;;;;;;;;11.70;99.90;;;;;;5063082;28;19928;-72
2024/01/24 13:28:22;;;;;;;;;;;11.80;99.90;;;;;;5060178;28;20392;-69
2024/01/24 13:30:49;;;;;;;;;;;11.80;99.90;;;;;;5060933;28;19940;-71
2024/01/24 13:33:17;;;;;;;;;;;11.80;99.90;;;;;;5062980;28;19933;-72
2024/01/24 13:35:43;;;;;;;;;;;11.80;99.90;;;;;;5064046;28;19958;-69
2024/01/24 13:38:10;;;;;;;;;;;11.80;99.90;;;;;;5061730;28;19928;-71
2024/01/24 13:40:36;;;;;;;;;;;11.90;99.90;;;;;;5063213;28;20424;-71
2024/01/24 13:43:03;;;;;;;;;;;11.90;99.90;;;;;;5067161;28;19932;-71
2024/01/24 13:45:29;;;;;;;;;;;11.90;99.90;;;;;;5062047;28;19935;-69
2024/01/24 13:47:56;;;;;;;;;;;11.90;99.90;;;;;;5063625;28;19928;-71
2024/01/24 13:50:24;;;;;;;;;;;12.00;99.90;;;;;;5065305;28;19932;-71
2024/01/24 13:52:50;;;;;;;;;;;12.00;99.90;;;;;;5066402;28;20680;-71
2024/01/24 13:55:17;;;;;;;;;;;12.00;99.90;;;;;;5058776;28;19928;-72
2024/01/24 13:57:44;;;;;;;;;;;12.00;99.90;;;;;;5062668;28;19936;-69
2024/01/24 14:00:11;;;;;;;;;;;12.00;99.90;;;;;;5063872;28;19975;-69
2024/01/24 14:02:38;;;;;;;;;;;12.00;99.90;;;;;;5063894;28;19933;-71
2024/01/24 14:05:05;;;;;;;;;;;12.00;99.90;;;;;;5062274;28;19928;-71
2024/01/24 14:07:33;;;;;;;;;;;12.00;99.90;;;;;;5062031;28;20409;-73
2024/01/24 14:10:00;;;;;;;;;;;12.00;99.90;;;;;;5063982;28;19928;-69
2024/01/24 14:12:26;;;;;;;;;;;12.00;99.90;;;;;;5063725;28;19932;-71
2024/01/24 14:14:53;;;;;;;;;;;12.00;99.90;;;;;;5065972;28;19938;-70
2024/01/24 14:17:19;;;;;;;;;;;12.00;99.90;;;;;;5063252;28;19990;-74
2024/01/24 14:19:46;;;;;;;;;;;12.00;99.90;;;;;;5064964;28;19977;-72
2024/01/24 14:22:12;;;;;;;;;;;11.90;99.90;;;;;;5062678;28;19936;-70